sensor_id;sensor_type;location;lat;lon;timestamp;pressure;altitude;pressure_sealevel;temperature;humidity
61488;BME280;47351;53.326;-6.298;2024-03-25T00:02:05;99649.48;;;8.22;100.00
61488;BME280;47351;53.326;-6.298;2024-03-25T00:04:58;99640.84;;;8.25;100.00
61488;BME280;47351;53.326;-6.298;2024-03-25T00:07:50;99631.01;;;8.27;100.00
61488;BME280;47351;53.326;-6.298;2024-03-25T00:10:44;99626.87;;;8.29;100.00
61488;BME280;47351;53.326;-6.298;2024-03-25T00:13:36;99618.46;;;8.34;100.00
61488;BME280;47351;53.326;-6.298;2024-03-25T00:16:27;99616.23;;;8.40;100.00
61488;BME280;47351;53.326;-6.298;2024-03-25T00:19:22;99611.84;;;8.45;100.00
61488;BME280;47351;53.326;-6.298;2024-03-25T00:22:14;99605.23;;;8.45;100.00
61488;BME280;47351;53.326;-6.298;2024-03-25T00:25:08;99599.45;;;8.44;100.00
61488;BME280;47351;53.326;-6.298;2024-03-25T00:28:00;99586.80;;;8.43;100.00
61488;BME280;47351;53.326;-6.298;2024-03-25T00:30:52;99583.96;;;8.43;100.00
61488;BME280;47351;53.326;-6.298;2024-03-25T00:33:44;99577.68;;;8.47;100.00
61488;BME280;47351;53.326;-6.298;2024-03-25T00:36:36;99572.19;;;8.53;100.00
61488;BME280;47351;53.326;-6.298;2024-03-25T00:39:34;99562.79;;;8.60;100.00
61488;BME280;47351;53.326;-6.298;2024-03-25T00:42:31;99554.10;;;8.65;100.00
61488;BME280;47351;53.326;-6.298;2024-03-25T00:45:26;99540.77;;;8.68;100.00
61488;BME280;47351;53.326;-6.298;2024-03-25T00:48:21;99527.94;;;8.68;100.00
61488;BME280;47351;53.326;-6.298;2024-03-25T00:51:13;99520.34;;;8.66;100.00
61488;BME280;47351;53.326;-6.298;2024-03-25T00:54:07;99519.78;;;8.65;100.00
61488;BME280;47351;53.326;-6.298;2024-03-25T00:57:02;99512.04;;;8.65;100.00
61488;BME280;47351;53.326;-6.298;2024-03-25T01:00:00;99500.45;;;8.69;100.00
61488;BME280;47351;53.326;-6.298;2024-03-25T01:03:05;99492.29;;;8.72;100.00
61488;BME280;47351;53.326;-6.298;2024-03-25T01:06:14;99484.75;;;8.72;100.00
61488;BME280;47351;53.326;-6.298;2024-03-25T01:09:29;99481.52;;;8.71;100.00
61488;BME280;47351;53.326;-6.298;2024-03-25T01:12:31;99473.86;;;8.70;100.00
61488;BME280;47351;53.326;-6.298;2024-03-25T01:15:50;99467.06;;;8.69;100.00
61488;BME280;47351;53.326;-6.298;2024-03-25T01:38:58;99444.94;;;8.79;100.00
61488;BME280;47351;53.326;-6.298;2024-03-25T01:47:18;99437.39;;;8.77;100.00
61488;BME280;47351;53.326;-6.298;2024-03-25T01:50:43;99428.40;;;8.76;100.00
61488;BME280;47351;53.326;-6.298;2024-03-25T01:53:36;99420.63;;;8.76;100.00
61488;BME280;47351;53.326;-6.298;2024-03-25T01:56:31;99415.80;;;8.79;100.00
61488;BME280;47351;53.326;-6.298;2024-03-25T01:59:25;99412.05;;;8.84;100.00
61488;BME280;47351;53.326;-6.298;2024-03-25T02:02:17;99407.12;;;8.88;100.00
61488;BME280;47351;53.326;-6.298;2024-03-25T02:05:09;99402.67;;;8.89;100.00
61488;BME280;47351;53.326;-6.298;2024-03-25T02:08:02;99398.98;;;8.90;100.00
61488;BME280;47351;53.326;-6.298;2024-03-25T02:10:55;99398.29;;;8.91;100.00
61488;BME280;47351;53.326;-6.298;2024-03-25T02:13:48;99389.95;;;8.94;100.00
61488;BME280;47351;53.326;-6.298;2024-03-25T02:16:40;99386.85;;;8.94;100.00
61488;BME280;47351;53.326;-6.298;2024-03-25T02:19:32;99379.92;;;8.93;100.00
61488;BME280;47351;53.326;-6.298;2024-03-25T02:22:25;99376.55;;;8.93;100.00
61488;BME280;47351;53.326;-6.298;2024-03-25T02:25:17;99371.73;;;8.94;100.00
61488;BME280;47351;53.326;-6.298;2024-03-25T02:28:09;99362.70;;;8.94;100.00
61488;BME280;47351;53.326;-6.298;2024-03-25T02:31:01;99357.77;;;8.89;100.00
61488;BME280;47351;53.326;-6.298;2024-03-25T02:33:56;99356.00;;;8.84;100.00
61488;BME280;47351;53.326;-6.298;2024-03-25T02:36:48;99352.18;;;8.82;100.00
61488;BME280;47351;53.326;-6.298;2024-03-25T02:39:40;99345.94;;;8.80;100.00
61488;BME280;47351;53.326;-6.298;2024-03-25T02:42:33;99340.57;;;8.81;100.00
61488;BME280;47351;53.326;-6.298;2024-03-25T02:45:30;99334.24;;;8.81;100.00
61488;BME280;47351;53.326;-6.298;2024-03-25T02:48:47;99329.17;;;8.82;100.00
61488;BME280;47351;53.326;-6.298;2024-03-25T03:29:05;99243.54;;;8.77;100.00
61488;BME280;47351;53.326;-6.298;2024-03-25T03:31:57;99234.39;;;8.77;100.00
61488;BME280;47351;53.326;-6.298;2024-03-25T03:34:53;99228.76;;;8.80;100.00
61488;BME280;47351;53.326;-6.298;2024-03-25T03:37:47;99223.27;;;8.83;100.00
61488;BME280;47351;53.326;-6.298;2024-03-25T03:40:39;99222.49;;;8.85;100.00
61488;BME280;47351;53.326;-6.298;2024-03-25T03:43:41;99221.05;;;8.87;100.00
61488;BME280;47351;53.326;-6.298;2024-03-25T03:46:48;99216.64;;;8.85;100.00
61488;BME280;47351;53.326;-6.298;2024-03-25T03:50:00;99213.84;;;8.81;100.00
61488;BME280;47351;53.326;-6.298;2024-03-25T03:53:07;99210.67;;;8.76;100.00
61488;BME280;47351;53.326;-6.298;2024-03-25T03:56:12;99207.74;;;8.74;100.00
61488;BME280;47351;53.326;-6.298;2024-03-25T03:59:15;99200.52;;;8.74;100.00
61488;BME280;47351;53.326;-6.298;2024-03-25T04:02:17;99197.11;;;8.72;100.00
61488;BME280;47351;53.326;-6.298;2024-03-25T04:05:17;99190.50;;;8.71;100.00
61488;BME280;47351;53.326;-6.298;2024-03-25T04:08:25;99181.17;;;8.70;100.00
61488;BME280;47351;53.326;-6.298;2024-03-25T04:11:35;99176.80;;;8.70;100.00
61488;BME280;47351;53.326;-6.298;2024-03-25T04:14:27;99175.92;;;8.68;100.00
61488;BME280;47351;53.326;-6.298;2024-03-25T04:17:18;99168.98;;;8.65;100.00
61488;BME280;47351;53.326;-6.298;2024-03-25T04:20:12;99169.67;;;8.62;100.00
61488;BME280;47351;53.326;-6.298;2024-03-25T04:23:12;99160.25;;;8.61;100.00
61488;BME280;47351;53.326;-6.298;2024-03-25T04:26:05;99156.75;;;8.60;100.00
61488;BME280;47351;53.326;-6.298;2024-03-25T04:28:59;99146.11;;;8.62;100.00
61488;BME280;47351;53.326;-6.298;2024-03-25T04:31:51;99143.49;;;8.63;100.00
61488;BME280;47351;53.326;-6.298;2024-03-25T04:34:44;99139.36;;;8.63;100.00
61488;BME280;47351;53.326;-6.298;2024-03-25T04:37:36;99146.30;;;8.63;100.00
61488;BME280;47351;53.326;-6.298;2024-03-25T04:40:28;99138.32;;;8.63;100.00
61488;BME280;47351;53.326;-6.298;2024-03-25T04:43:21;99132.41;;;8.62;100.00
61488;BME280;47351;53.326;-6.298;2024-03-25T04:46:15;99127.80;;;8.60;100.00
61488;BME280;47351;53.326;-6.298;2024-03-25T04:49:07;99125.69;;;8.60;100.00
61488;BME280;47351;53.326;-6.298;2024-03-25T04:51:59;99130.33;;;8.60;100.00
61488;BME280;47351;53.326;-6.298;2024-03-25T04:54:54;99125.02;;;8.61;100.00
61488;BME280;47351;53.326;-6.298;2024-03-25T04:57:49;99121.54;;;8.62;100.00
61488;BME280;47351;53.326;-6.298;2024-03-25T05:00:41;99117.48;;;8.63;100.00
61488;BME280;47351;53.326;-6.298;2024-03-25T05:03:33;99113.41;;;8.65;100.00
61488;BME280;47351;53.326;-6.298;2024-03-25T05:06:27;99106.15;;;8.64;99.86
61488;BME280;47351;53.326;-6.298;2024-03-25T05:09:19;99102.58;;;8.65;99.52
61488;BME280;47351;53.326;-6.298;2024-03-25T05:12:17;99097.54;;;8.63;99.20
61488;BME280;47351;53.326;-6.298;2024-03-25T05:15:13;99096.17;;;8.63;98.95
61488;BME280;47351;53.326;-6.298;2024-03-25T05:18:06;99091.55;;;8.63;98.94
61488;BME280;47351;53.326;-6.298;2024-03-25T05:21:01;99086.47;;;8.64;99.05
61488;BME280;47351;53.326;-6.298;2024-03-25T05:23:53;99077.98;;;8.65;99.04
61488;BME280;47351;53.326;-6.298;2024-03-25T05:26:46;99073.97;;;8.66;99.06
61488;BME280;47351;53.326;-6.298;2024-03-25T05:29:39;99070.06;;;8.66;99.00
61488;BME280;47351;53.326;-6.298;2024-03-25T05:32:32;99065.76;;;8.64;98.83
61488;BME280;47351;53.326;-6.298;2024-03-25T05:35:27;99061.38;;;8.63;98.64
61488;BME280;47351;53.326;-6.298;2024-03-25T05:38:23;99052.34;;;8.59;98.48
61488;BME280;47351;53.326;-6.298;2024-03-25T05:41:18;99052.81;;;8.54;98.23
61488;BME280;47351;53.326;-6.298;2024-03-25T05:44:10;99053.77;;;8.51;98.16
61488;BME280;47351;53.326;-6.298;2024-03-25T05:47:02;99052.48;;;8.48;98.03
61488;BME280;47351;53.326;-6.298;2024-03-25T05:49:53;99046.71;;;8.45;98.10
61488;BME280;47351;53.326;-6.298;2024-03-25T05:52:45;99054.98;;;8.45;98.32
61488;BME280;47351;53.326;-6.298;2024-03-25T05:55:37;99051.29;;;8.44;98.33
61488;BME280;47351;53.326;-6.298;2024-03-25T05:58:30;99053.11;;;8.43;98.21
61488;BME280;47351;53.326;-6.298;2024-03-25T06:01:22;99045.17;;;8.41;98.00
61488;BME280;47351;53.326;-6.298;2024-03-25T06:04:15;99039.93;;;8.37;97.92
61488;BME280;47351;53.326;-6.298;2024-03-25T06:07:06;99041.65;;;8.34;97.92
61488;BME280;47351;53.326;-6.298;2024-03-25T06:10:01;99036.55;;;8.32;97.86
61488;BME280;47351;53.326;-6.298;2024-03-25T06:12:58;99033.71;;;8.32;97.76
61488;BME280;47351;53.326;-6.298;2024-03-25T06:15:53;99033.85;;;8.32;97.64
61488;BME280;47351;53.326;-6.298;2024-03-25T06:18:47;99036.02;;;8.33;97.62
61488;BME280;47351;53.326;-6.298;2024-03-25T06:22:59;99026.09;;;8.33;97.64
61488;BME280;47351;53.326;-6.298;2024-03-25T06:30:42;99011.38;;;8.24;97.47
61488;BME280;47351;53.326;-6.298;2024-03-25T06:46:49;98983.87;;;8.28;97.06
61488;BME280;47351;53.326;-6.298;2024-03-25T06:51:17;98972.16;;;8.31;96.99
61488;BME280;47351;53.326;-6.298;2024-03-25T06:54:11;98969.65;;;8.33;97.00
61488;BME280;47351;53.326;-6.298;2024-03-25T06:57:04;98969.33;;;8.33;96.80
61488;BME280;47351;53.326;-6.298;2024-03-25T06:59:56;98971.67;;;8.37;96.65
61488;BME280;47351;53.326;-6.298;2024-03-25T07:02:50;98974.41;;;8.41;96.56
61488;BME280;47351;53.326;-6.298;2024-03-25T07:05:45;98974.45;;;8.45;96.42
61488;BME280;47351;53.326;-6.298;2024-03-25T07:08:43;98972.35;;;8.50;96.31
61488;BME280;47351;53.326;-6.298;2024-03-25T07:11:35;98971.48;;;8.54;96.29
61488;BME280;47351;53.326;-6.298;2024-03-25T07:14:32;98967.77;;;8.60;96.18
61488;BME280;47351;53.326;-6.298;2024-03-25T07:17:24;98963.14;;;8.64;95.97
61488;BME280;47351;53.326;-6.298;2024-03-25T07:20:16;98961.38;;;8.71;95.78
61488;BME280;47351;53.326;-6.298;2024-03-25T07:23:10;98947.95;;;8.92;95.76
61488;BME280;47351;53.326;-6.298;2024-03-25T07:26:24;98937.38;;;9.37;95.48
61488;BME280;47351;53.326;-6.298;2024-03-25T07:29:17;98935.20;;;9.59;94.35
61488;BME280;47351;53.326;-6.298;2024-03-25T07:32:10;98931.92;;;9.68;93.76
61488;BME280;47351;53.326;-6.298;2024-03-25T07:35:07;98932.96;;;9.83;93.34
61488;BME280;47351;53.326;-6.298;2024-03-25T07:38:01;98927.90;;;9.75;93.25
61488;BME280;47351;53.326;-6.298;2024-03-25T07:40:57;98927.22;;;9.65;93.53
61488;BME280;47351;53.326;-6.298;2024-03-25T07:43:55;98925.65;;;9.62;93.76
61488;BME280;47351;53.326;-6.298;2024-03-25T07:46:48;98923.16;;;9.66;93.83
61488;BME280;47351;53.326;-6.298;2024-03-25T07:49:43;98922.77;;;9.93;93.91
61488;BME280;47351;53.326;-6.298;2024-03-25T07:52:35;98918.67;;;10.22;93.19
61488;BME280;47351;53.326;-6.298;2024-03-25T07:55:50;98921.18;;;10.34;92.46
61488;BME280;47351;53.326;-6.298;2024-03-25T07:59:31;98910.98;;;11.35;91.11
61488;BME280;47351;53.326;-6.298;2024-03-25T08:03:04;98912.15;;;11.53;89.27
61488;BME280;47351;53.326;-6.298;2024-03-25T08:05:56;98911.98;;;11.52;88.80
61488;BME280;47351;53.326;-6.298;2024-03-25T08:08:48;98910.23;;;11.47;88.74
61488;BME280;47351;53.326;-6.298;2024-03-25T08:11:39;98914.15;;;11.40;88.48
61488;BME280;47351;53.326;-6.298;2024-03-25T08:14:32;98923.35;;;11.29;88.19
61488;BME280;47351;53.326;-6.298;2024-03-25T08:17:24;98927.89;;;11.14;88.75
61488;BME280;47351;53.326;-6.298;2024-03-25T08:20:15;98929.35;;;11.02;89.15
61488;BME280;47351;53.326;-6.298;2024-03-25T08:23:07;98931.70;;;10.92;89.53
61488;BME280;47351;53.326;-6.298;2024-03-25T08:26:01;98929.59;;;10.87;89.94
61488;BME280;47351;53.326;-6.298;2024-03-25T08:29:50;98932.52;;;10.85;90.18
61488;BME280;47351;53.326;-6.298;2024-03-25T08:33:11;98928.71;;;10.85;89.91
61488;BME280;47351;53.326;-6.298;2024-03-25T08:36:27;98930.61;;;10.84;89.98
61488;BME280;47351;53.326;-6.298;2024-03-25T08:39:40;98925.70;;;10.86;90.06
61488;BME280;47351;53.326;-6.298;2024-03-25T08:43:22;98932.11;;;10.88;90.14
61488;BME280;47351;53.326;-6.298;2024-03-25T08:47:36;98932.64;;;10.85;90.46
61488;BME280;47351;53.326;-6.298;2024-03-25T08:51:02;98928.66;;;10.76;90.89
61488;BME280;47351;53.326;-6.298;2024-03-25T08:59:54;98936.17;;;10.52;92.34
61488;BME280;47351;53.326;-6.298;2024-03-25T09:03:11;98931.25;;;10.55;92.79
61488;BME280;47351;53.326;-6.298;2024-03-25T09:07:08;98930.36;;;10.59;92.39
61488;BME280;47351;53.326;-6.298;2024-03-25T09:10:45;98931.13;;;10.57;92.53
61488;BME280;47351;53.326;-6.298;2024-03-25T09:13:57;98929.23;;;10.53;92.30
61488;BME280;47351;53.326;-6.298;2024-03-25T09:16:48;98926.86;;;10.49;92.08
61488;BME280;47351;53.326;-6.298;2024-03-25T09:19:40;98926.13;;;10.49;92.10
61488;BME280;47351;53.326;-6.298;2024-03-25T09:22:34;98921.08;;;10.53;92.29
61488;BME280;47351;53.326;-6.298;2024-03-25T09:25:26;98922.32;;;10.58;92.71
61488;BME280;47351;53.326;-6.298;2024-03-25T09:28:18;98918.88;;;10.61;92.53
61488;BME280;47351;53.326;-6.298;2024-03-25T09:31:10;98920.20;;;10.59;92.59
61488;BME280;47351;53.326;-6.298;2024-03-25T09:34:01;98919.77;;;10.56;92.38
61488;BME280;47351;53.326;-6.298;2024-03-25T09:36:54;98918.02;;;10.55;92.69
61488;BME280;47351;53.326;-6.298;2024-03-25T09:39:45;98910.38;;;10.59;92.35
61488;BME280;47351;53.326;-6.298;2024-03-25T09:42:45;98908.81;;;10.60;92.13
61488;BME280;47351;53.326;-6.298;2024-03-25T09:45:38;98912.44;;;10.56;92.44
61488;BME280;47351;53.326;-6.298;2024-03-25T09:48:31;98911.14;;;10.48;92.61
61488;BME280;47351;53.326;-6.298;2024-03-25T09:51:24;98910.06;;;10.43;92.74
61488;BME280;47351;53.326;-6.298;2024-03-25T09:54:16;98906.13;;;10.37;92.74
61488;BME280;47351;53.326;-6.298;2024-03-25T09:57:09;98908.16;;;10.33;92.67
61488;BME280;47351;53.326;-6.298;2024-03-25T10:00:01;98910.77;;;10.26;92.64
61488;BME280;47351;53.326;-6.298;2024-03-25T10:03:01;98906.36;;;10.19;92.85
61488;BME280;47351;53.326;-6.298;2024-03-25T10:05:53;98903.99;;;10.14;93.33
61488;BME280;47351;53.326;-6.298;2024-03-25T10:08:46;98910.06;;;10.11;93.46
61488;BME280;47351;53.326;-6.298;2024-03-25T10:11:37;98911.10;;;10.12;93.78
61488;BME280;47351;53.326;-6.298;2024-03-25T10:14:29;98908.36;;;10.18;93.98
61488;BME280;47351;53.326;-6.298;2024-03-25T10:17:21;98897.88;;;10.32;93.89
61488;BME280;47351;53.326;-6.298;2024-03-25T10:20:16;98896.67;;;10.40;93.22
61488;BME280;47351;53.326;-6.298;2024-03-25T10:23:09;98894.30;;;10.47;93.25
61488;BME280;47351;53.326;-6.298;2024-03-25T10:26:04;98891.77;;;10.50;92.97
61488;BME280;47351;53.326;-6.298;2024-03-25T10:29:24;98880.37;;;10.53;92.97
61488;BME280;47351;53.326;-6.298;2024-03-25T10:32:29;98874.06;;;10.54;92.92
61488;BME280;47351;53.326;-6.298;2024-03-25T10:35:21;98870.92;;;10.55;92.70
61488;BME280;47351;53.326;-6.298;2024-03-25T10:38:16;98867.06;;;10.57;92.69
61488;BME280;47351;53.326;-6.298;2024-03-25T10:41:08;98856.88;;;10.59;92.71
61488;BME280;47351;53.326;-6.298;2024-03-25T10:44:03;98859.95;;;10.57;92.51
61488;BME280;47351;53.326;-6.298;2024-03-25T10:47:00;98854.96;;;10.53;92.71
61488;BME280;47351;53.326;-6.298;2024-03-25T10:49:58;98853.56;;;10.51;92.65
61488;BME280;47351;53.326;-6.298;2024-03-25T10:52:52;98846.77;;;10.51;92.68
61488;BME280;47351;53.326;-6.298;2024-03-25T10:55:46;98849.20;;;10.58;92.76
61488;BME280;47351;53.326;-6.298;2024-03-25T10:58:39;98853.71;;;10.74;92.75
61488;BME280;47351;53.326;-6.298;2024-03-25T11:01:32;98859.20;;;11.14;92.54
61488;BME280;47351;53.326;-6.298;2024-03-25T11:04:25;98861.45;;;11.55;91.80
61488;BME280;47351;53.326;-6.298;2024-03-25T11:07:17;98860.60;;;12.03;90.70
61488;BME280;47351;53.326;-6.298;2024-03-25T11:10:10;98860.31;;;12.89;88.16
61488;BME280;47351;53.326;-6.298;2024-03-25T11:13:02;98852.73;;;13.37;86.29
61488;BME280;47351;53.326;-6.298;2024-03-25T11:15:54;98857.86;;;13.75;84.88
61488;BME280;47351;53.326;-6.298;2024-03-25T11:18:53;98861.70;;;13.96;83.05
61488;BME280;47351;53.326;-6.298;2024-03-25T11:21:44;98864.16;;;14.09;82.05
61488;BME280;47351;53.326;-6.298;2024-03-25T11:24:37;98864.21;;;14.00;81.74
61488;BME280;47351;53.326;-6.298;2024-03-25T11:27:28;98867.73;;;13.78;81.25
61488;BME280;47351;53.326;-6.298;2024-03-25T11:30:20;98867.55;;;13.50;81.87
61488;BME280;47351;53.326;-6.298;2024-03-25T11:33:16;98866.23;;;13.24;82.10
61488;BME280;47351;53.326;-6.298;2024-03-25T11:36:09;98858.96;;;13.02;82.10
61488;BME280;47351;53.326;-6.298;2024-03-25T11:39:01;98864.64;;;12.80;82.67
61488;BME280;47351;53.326;-6.298;2024-03-25T11:41:54;98871.77;;;12.64;83.52
61488;BME280;47351;53.326;-6.298;2024-03-25T11:44:46;98869.82;;;12.52;83.95
61488;BME280;47351;53.326;-6.298;2024-03-25T11:47:50;98872.14;;;12.36;84.70
61488;BME280;47351;53.326;-6.298;2024-03-25T11:50:44;98869.71;;;12.10;85.80
61488;BME280;47351;53.326;-6.298;2024-03-25T11:53:40;98861.29;;;11.87;86.87
61488;BME280;47351;53.326;-6.298;2024-03-25T11:56:31;98853.94;;;11.75;87.64
61488;BME280;47351;53.326;-6.298;2024-03-25T11:59:23;98845.42;;;11.64;88.51
61488;BME280;47351;53.326;-6.298;2024-03-25T12:02:16;98843.38;;;11.56;89.46
61488;BME280;47351;53.326;-6.298;2024-03-25T12:05:09;98841.63;;;11.48;90.49
61488;BME280;47351;53.326;-6.298;2024-03-25T12:08:00;98841.52;;;11.42;91.10
61488;BME280;47351;53.326;-6.298;2024-03-25T12:10:52;98840.15;;;11.45;91.31
61488;BME280;47351;53.326;-6.298;2024-03-25T12:14:01;98843.36;;;11.49;91.38
61488;BME280;47351;53.326;-6.298;2024-03-25T12:16:54;98845.64;;;11.41;91.90
61488;BME280;47351;53.326;-6.298;2024-03-25T12:19:46;98845.17;;;11.37;92.11
61488;BME280;47351;53.326;-6.298;2024-03-25T12:22:50;98848.03;;;11.41;92.78
61488;BME280;47351;53.326;-6.298;2024-03-25T12:25:47;98847.26;;;11.36;93.18
61488;BME280;47351;53.326;-6.298;2024-03-25T12:28:40;98847.48;;;11.17;93.37
61488;BME280;47351;53.326;-6.298;2024-03-25T12:31:32;98849.11;;;10.97;94.18
61488;BME280;47351;53.326;-6.298;2024-03-25T12:34:26;98848.92;;;10.79;94.93
61488;BME280;47351;53.326;-6.298;2024-03-25T12:37:17;98847.93;;;10.62;95.80
61488;BME280;47351;53.326;-6.298;2024-03-25T12:40:11;98840.10;;;10.51;96.54
61488;BME280;47351;53.326;-6.298;2024-03-25T12:43:04;98840.92;;;10.39;97.32
61488;BME280;47351;53.326;-6.298;2024-03-25T12:45:56;98841.69;;;10.28;97.97
61488;BME280;47351;53.326;-6.298;2024-03-25T12:48:51;98842.06;;;10.20;98.81
61488;BME280;47351;53.326;-6.298;2024-03-25T12:51:42;98849.33;;;10.12;99.15
61488;BME280;47351;53.326;-6.298;2024-03-25T12:54:34;98847.52;;;10.04;99.39
61488;BME280;47351;53.326;-6.298;2024-03-25T12:57:26;98843.84;;;9.97;99.64
61488;BME280;47351;53.326;-6.298;2024-03-25T13:00:19;98843.43;;;9.93;99.97
61488;BME280;47351;53.326;-6.298;2024-03-25T13:03:11;98832.84;;;9.91;100.00
61488;BME280;47351;53.326;-6.298;2024-03-25T13:06:04;98836.13;;;9.93;100.00
61488;BME280;47351;53.326;-6.298;2024-03-25T13:08:55;98838.95;;;9.93;100.00
61488;BME280;47351;53.326;-6.298;2024-03-25T13:11:47;98837.79;;;9.98;100.00
61488;BME280;47351;53.326;-6.298;2024-03-25T13:14:39;98837.23;;;10.12;100.00
61488;BME280;47351;53.326;-6.298;2024-03-25T13:17:30;98840.69;;;10.15;100.00
61488;BME280;47351;53.326;-6.298;2024-03-25T13:20:22;98840.04;;;10.13;100.00
61488;BME280;47351;53.326;-6.298;2024-03-25T13:23:13;98833.63;;;10.17;100.00
61488;BME280;47351;53.326;-6.298;2024-03-25T13:26:05;98835.73;;;10.22;100.00
61488;BME280;47351;53.326;-6.298;2024-03-25T13:28:56;98827.70;;;10.18;100.00
61488;BME280;47351;53.326;-6.298;2024-03-25T13:31:48;98826.31;;;10.09;100.00
61488;BME280;47351;53.326;-6.298;2024-03-25T13:34:45;98831.72;;;9.99;100.00
61488;BME280;47351;53.326;-6.298;2024-03-25T13:37:37;98830.94;;;9.90;100.00
61488;BME280;47351;53.326;-6.298;2024-03-25T13:40:28;98831.02;;;9.82;100.00
61488;BME280;47351;53.326;-6.298;2024-03-25T13:43:20;98826.19;;;9.78;100.00
61488;BME280;47351;53.326;-6.298;2024-03-25T13:46:12;98819.14;;;9.80;100.00
61488;BME280;47351;53.326;-6.298;2024-03-25T13:49:04;98824.56;;;9.81;100.00
61488;BME280;47351;53.326;-6.298;2024-03-25T13:51:58;98824.97;;;9.79;100.00
61488;BME280;47351;53.326;-6.298;2024-03-25T13:54:49;98825.13;;;9.86;100.00
61488;BME280;47351;53.326;-6.298;2024-03-25T13:57:41;98819.99;;;9.87;100.00
61488;BME280;47351;53.326;-6.298;2024-03-25T14:00:32;98812.74;;;9.85;100.00
61488;BME280;47351;53.326;-6.298;2024-03-25T14:03:29;98808.30;;;9.83;100.00
61488;BME280;47351;53.326;-6.298;2024-03-25T14:06:21;98803.95;;;9.77;100.00
61488;BME280;47351;53.326;-6.298;2024-03-25T14:09:24;98796.34;;;9.75;100.00
61488;BME280;47351;53.326;-6.298;2024-03-25T14:12:16;98806.30;;;9.70;100.00
61488;BME280;47351;53.326;-6.298;2024-03-25T14:15:09;98807.81;;;9.65;100.00
61488;BME280;47351;53.326;-6.298;2024-03-25T14:18:21;98805.88;;;9.65;100.00
61488;BME280;47351;53.326;-6.298;2024-03-25T14:22:16;98807.08;;;9.66;100.00
61488;BME280;47351;53.326;-6.298;2024-03-25T14:29:13;98797.90;;;9.65;100.00
61488;BME280;47351;53.326;-6.298;2024-03-25T14:36:25;98783.89;;;9.78;100.00
61488;BME280;47351;53.326;-6.298;2024-03-25T14:40:50;98773.86;;;9.76;100.00
61488;BME280;47351;53.326;-6.298;2024-03-25T14:44:58;98771.27;;;9.66;100.00
61488;BME280;47351;53.326;-6.298;2024-03-25T14:47:49;98777.86;;;9.59;100.00
61488;BME280;47351;53.326;-6.298;2024-03-25T14:50:41;98773.62;;;9.56;100.00
61488;BME280;47351;53.326;-6.298;2024-03-25T14:53:33;98774.76;;;9.55;100.00
61488;BME280;47351;53.326;-6.298;2024-03-25T14:56:25;98769.21;;;9.56;100.00
61488;BME280;47351;53.326;-6.298;2024-03-25T14:59:17;98776.39;;;9.55;100.00
61488;BME280;47351;53.326;-6.298;2024-03-25T15:02:08;98776.44;;;9.54;100.00
61488;BME280;47351;53.326;-6.298;2024-03-25T15:05:07;98773.33;;;9.53;100.00
61488;BME280;47351;53.326;-6.298;2024-03-25T15:08:01;98770.89;;;9.54;100.00
61488;BME280;47351;53.326;-6.298;2024-03-25T15:10:53;98766.06;;;9.59;100.00
61488;BME280;47351;53.326;-6.298;2024-03-25T15:13:44;98766.86;;;9.63;100.00
61488;BME280;47351;53.326;-6.298;2024-03-25T15:16:37;98768.69;;;9.65;100.00
61488;BME280;47351;53.326;-6.298;2024-03-25T15:19:32;98766.86;;;9.62;100.00
61488;BME280;47351;53.326;-6.298;2024-03-25T15:22:24;98766.16;;;9.62;100.00
61488;BME280;47351;53.326;-6.298;2024-03-25T15:25:16;98768.83;;;9.64;100.00
61488;BME280;47351;53.326;-6.298;2024-03-25T15:28:08;98767.33;;;9.64;100.00
61488;BME280;47351;53.326;-6.298;2024-03-25T15:30:59;98767.97;;;9.62;100.00
61488;BME280;47351;53.326;-6.298;2024-03-25T15:33:51;98768.77;;;9.56;100.00
61488;BME280;47351;53.326;-6.298;2024-03-25T15:47:58;98775.97;;;9.42;100.00
61488;BME280;47351;53.326;-6.298;2024-03-25T15:50:52;98770.65;;;9.43;100.00
61488;BME280;47351;53.326;-6.298;2024-03-25T15:53:47;98766.36;;;9.52;100.00
61488;BME280;47351;53.326;-6.298;2024-03-25T15:56:39;98751.35;;;9.59;100.00
61488;BME280;47351;53.326;-6.298;2024-03-25T15:59:31;98749.29;;;9.66;100.00
61488;BME280;47351;53.326;-6.298;2024-03-25T16:02:22;98747.70;;;9.71;100.00
61488;BME280;47351;53.326;-6.298;2024-03-25T16:05:18;98751.69;;;9.77;100.00
61488;BME280;47351;53.326;-6.298;2024-03-25T16:08:09;98757.18;;;9.80;100.00
61488;BME280;47351;53.326;-6.298;2024-03-25T16:11:02;98764.97;;;9.84;100.00
61488;BME280;47351;53.326;-6.298;2024-03-25T16:24:11;98794.42;;;9.92;100.00
61488;BME280;47351;53.326;-6.298;2024-03-25T16:27:03;98797.79;;;9.88;100.00
61488;BME280;47351;53.326;-6.298;2024-03-25T16:29:54;98791.73;;;9.84;100.00
61488;BME280;47351;53.326;-6.298;2024-03-25T16:32:46;98793.36;;;9.81;100.00
61488;BME280;47351;53.326;-6.298;2024-03-25T16:35:39;98790.59;;;9.80;100.00
61488;BME280;47351;53.326;-6.298;2024-03-25T16:38:31;98789.87;;;9.82;100.00
61488;BME280;47351;53.326;-6.298;2024-03-25T16:41:23;98793.04;;;9.83;100.00
61488;BME280;47351;53.326;-6.298;2024-03-25T16:44:14;98797.33;;;9.83;100.00
61488;BME280;47351;53.326;-6.298;2024-03-25T16:47:06;98803.31;;;9.81;100.00
61488;BME280;47351;53.326;-6.298;2024-03-25T16:49:58;98806.67;;;9.79;99.89
61488;BME280;47351;53.326;-6.298;2024-03-25T16:52:50;98810.08;;;9.77;99.41
61488;BME280;47351;53.326;-6.298;2024-03-25T16:55:42;98820.58;;;9.80;98.91
61488;BME280;47351;53.326;-6.298;2024-03-25T16:58:34;98825.28;;;9.83;98.88
61488;BME280;47351;53.326;-6.298;2024-03-25T17:01:26;98832.20;;;9.88;99.02
61488;BME280;47351;53.326;-6.298;2024-03-25T17:04:18;98840.18;;;9.89;98.81
61488;BME280;47351;53.326;-6.298;2024-03-25T17:07:09;98842.00;;;9.90;98.78
61488;BME280;47351;53.326;-6.298;2024-03-25T17:10:01;98843.36;;;9.92;98.81
61488;BME280;47351;53.326;-6.298;2024-03-25T17:12:53;98846.20;;;9.92;98.70
61488;BME280;47351;53.326;-6.298;2024-03-25T17:15:44;98855.44;;;9.90;98.45
61488;BME280;47351;53.326;-6.298;2024-03-25T17:18:37;98859.09;;;9.86;98.39
61488;BME280;47351;53.326;-6.298;2024-03-25T17:21:28;98862.31;;;9.81;98.09
61488;BME280;47351;53.326;-6.298;2024-03-25T17:24:20;98866.07;;;9.74;97.92
61488;BME280;47351;53.326;-6.298;2024-03-25T17:27:12;98874.02;;;9.69;98.03